Create Custom Reports and Graphics: Custom Report

Bell Hill West (BHR)

Current Conditions

5/24/19 10:15 PM (-07:00)
Updated Every 15 Minutes
Temp 58.5 °F   0.4
RH 75 %   4
Dew Pt 50.7 °F   1.0
Wet Bulb 54.8 °F   0.5
Wind Dir SSW | 196 °
Wind Spd 2.0 mph   1.7
Wind Gust 6.1 mph   3.4
Solar Rad 0 W/m2   0
Daily Min Temp 47.2 °F   1.1
Daily Max Temp 75.3 °F   0.2
Latest Rain 0.00 In
Daily Rain 0.00 In

Bell Hill West

Last 24 Hours

Hourly Data | America/Los_Angeles
as of 5/24/19 10:20 PM PDT
Date & Time Temp (°F) RH (%) Dew Pt (°F) Wet Bulb (°F) Leaf Wet (mins) Wind Dir (°) Wind Spd (mph) Wind Gust (mph) Solar Rad (W/m2) Latest Rain (In) Daily Rain (In) Daily Min Temp (°F) Daily Max Temp (°F)
5/24/19 - 2200 60.4 70 50.8 55.5 0.2 SSW | 204 0.8 6.9 0 0.00 0.00 47.2 75.3
5/24/19 - 2100 63.0 64 50.8 56.4 0.2 WSW | 242 2.7 10.6 7 0.00 0.00 47.2 75.3
5/24/19 - 2000 67.5 55 50.8 58.0 0.2 SW | 219 5.0 12.5 110 0.00 0.00 47.2 75.3
5/24/19 - 1900 70.2 54 50.6 59.8 0.2 SW | 236 6.5 11.6 322 0.00 0.00 47.2 75.3
5/24/19 - 1800 71.9 56 53.8 62.1 0.2 SW | 234 7.2 14.3 530 0.00 0.00 47.2 75.3
5/24/19 - 1700 73.5 51 55.0 61.6 0.2 SW | 220 9.4 16.5 671 0.00 0.00 47.2 75.3
5/24/19 - 1600 74.6 45 49.8 60.5 0.2 WSW | 237 7.2 13.8 816 0.00 0.00 47.2 75.3
5/24/19 - 1500 72.9 50 52.6 60.7 0.1 WSW | 242 7.4 13.8 798 0.00 0.00 47.2 74.8
5/24/19 - 1400 72.3 53 53.3 61.4 0.1 WSW | 254 8.2 15.5 972 0.00 0.00 47.2 74.3
5/24/19 - 1300 72.5 51 54.0 60.7 0.1 W | 266 2.6 11.8 961 0.00 0.00 47.2 74.3
5/24/19 - 1200 69.5 54 51.9 59.2 0.1 N | 3 1.3 7.4 903 0.00 0.00 47.2 70.8
5/24/19 - 1100 66.8 59 53.1 58.5 0.0 NNW | 343 1.3 6.8 790 0.00 0.00 47.2 68.3
5/24/19 - 1000 63.7 66 52.9 57.6 0.0 NNE | 32 0.9 5.4 633 0.00 0.00 47.2 65.6
5/24/19 - 0900 59.9 74 52.0 55.9 0.0 NE | 39 0.0 3.4 446 0.00 0.00 47.2 62.0
5/24/19 - 0800 54.5 85 50.2 52.8 0.0 N | 0 0.0 0.0 249 0.00 0.00 47.2 59.2
5/24/19 - 0700 48.7 99 49.3 49.4 0.0 S | 173 0.0 2.6 52 0.00 0.00 47.2 52.3
5/24/19 - 0600 47.8 100 47.3 48.4 0.0 N | 0 0.0 0.0 1 0.00 0.00 47.2 52.3
5/24/19 - 0500 48.5 98 48.8 48.9 0.0 SW | 223 0.0 2.1 0 0.00 0.00 47.9 52.3
5/24/19 - 0400 49.5 95 47.6 49.4 0.0 N | 0 0.0 0.0 0 0.00 0.00 48.7 52.3
5/24/19 - 0300 50.4 94 48.3 50.2 0.0 SSW | 194 0.3 3.4 0 0.00 0.00 50.0 52.3
5/24/19 - 0200 51.4 92 48.9 51.0 0.0 N | 0 0.0 0.0 0 0.00 0.00 50.8 52.3
5/24/19 - 0100 52.9 90 49.7 52.2 0.2 N | 0 0.0 0.0 0 0.00 0.00 46.0 75.5
5/24/19 - 0000 54.6 87 50.5 53.4 0.2 SSW | 197 1.9 4.1 0 0.00 0.00 46.0 75.5
5/23/19 - 2300 57.6 80 51.3 54.9 0.2 S | 169 0.3 2.7 0 0.00 0.00 46.0 75.5
5/23/19 - 2200 60.9 71 52.2 56.2 0.2 S | 170 2.0 4.8 0 0.00 0.00 46.0 75.5
Max 74.6 100 55.0 62.1 0.2 - 9.4 16.5 972 0.00 0.00 50.8 75.5
Avg 61.4 72 51.0 55.8 0.1 - 2.6 6.8 330 0.00 - - -
Min 47.8 45 47.3 48.4 0.0 - 0.0 0.0 0 0.00 0.00 46.0 52.3
Total - - - - - - - - - 0.00 - - -

Bell Hill West - Daily Summary

Last 30 Days

Daily Data | America/Los_Angeles
as of 5/24/19 10:20 PM PDT
Date Daily Max Temp (°F) Max Temp Time Daily Min Temp (°F) Min Temp Time Daily Rain (In) Seasonal Rainfall (In) Wind Spd (mph) Daily Max Wind (mph) Max Wind Time Max Wind Dir (°) Dew Pt (°F) Max RH (%) Min RH (%) Daily Solar Rad (Cal/cm2) Daily ETo (in) GDDs (DL) Chill Hrs <=45 (hrs) Hrs <= 32F (hrs) Hrs <= 28F (hrs) Hrs 70-85F (hrs) Hrs > 95F (hrs) Powdery Mildew Stress (pts) Leaf Wet (hrs) Bat Volt Min Day (V)
5/23/19 75.5 1755 46.0 0540 0.00 43.72 1.8 16.5 1250 NNE | 27 46.9 100 29 633 0.19 11.76 0.0 0.0 0.0 6.39 0.00 30 1.4 12.14
5/22/19 71.0 1705 39.0 0615 0.00 43.72 2.3 13.5 1803 SSW | 202 46.6 100 42 612 0.17 8.24 5.7 0.0 0.0 0.65 0.00 10 1.3 12.09
5/21/19 56.4 1457 46.5 0521 0.03 43.72 5.7 24.2 1459 WSW | 237 45.3 92 66 502 0.11 1.46 0.0 0.0 0.0 0.00 0.00 20 1.5 12.11
5/20/19 63.8 1455 38.6 0432 0.00 43.69 4.9 17.7 1700 SW | 230 42.9 100 41 643 0.17 4.14 6.3 0.0 0.0 0.00 0.00 30 1.4 12.12
5/19/19 55.2 1949 40.7 0404 0.16 43.69 2.3 16.2 1223 S | 178 43.0 100 60 404 0.09 0.72 9.6 0.0 0.0 0.00 0.00 40 1.4 11.98
5/18/19 50.8 1456 43.6 0307 0.39 43.53 1.7 12.3 1544 SSW | 203 44.6 100 75 115 0.03 0.03 5.1 0.0 0.0 0.00 0.00 50 0.6 11.96
5/17/19 63.1 1615 45.4 0046 0.00 43.14 3.7 13.5 1119 WSW | 243 43.6 94 34 585 0.15 3.79 0.0 0.0 0.0 0.00 0.00 60 1.4 12.00
5/16/19 51.3 1304 46.4 0238 0.35 43.14 5.2 19.0 1721 WSW | 244 44.9 93 81 254 0.06 0.08 0.0 0.0 0.0 0.00 0.00 70 0.7 11.99
5/15/19 56.8 1441 47.7 0057 1.37 42.79 4.3 18.3 1735 SSE | 155 50.1 94 74 172 0.05 3.44 0.0 0.0 0.0 0.00 0.00 80 0.6 12.07
5/14/19 62.1 1449 48.1 0414 0.00 41.42 3.2 14.5 0921 SW | 231 47.2 89 56 331 0.09 5.36 0.0 0.0 0.0 0.00 0.00 90 1.0 12.10
5/13/19 77.4 1520 45.0 0612 0.00 41.42 4.6 14.6 1447 SW | 215 41.2 86 23 606 0.21 12.69 0.0 0.0 0.0 8.52 0.00 100 1.1 12.10
5/12/19 80.6 1447 46.0 0615 0.00 41.42 4.3 14.5 1137 WSW | 244 38.9 84 16 693 0.24 14.21 0.0 0.0 0.0 8.79 0.00 100 1.0 12.13
5/11/19 84.1 1513 45.4 0622 0.00 41.42 4.1 15.3 1557 SW | 225 43.3 86 22 692 0.24 15.60 0.0 0.0 0.0 9.87 0.00 100 1.0 12.10
5/10/19 83.4 1705 49.8 0555 0.00 41.42 4.2 16.7 1037 NNE | 32 36.5 92 9 712 0.26 16.58 0.0 0.0 0.0 11.68 0.00 100 1.0 12.14
5/9/19 82.4 1323 48.9 0632 0.00 41.42 3.1 17.8 1725 SW | 230 50.4 94 22 674 0.21 15.08 0.0 0.0 0.0 9.47 0.00 100 1.0 12.15
5/8/19 80.8 1403 47.5 0621 0.00 41.42 3.3 15.5 1440 W | 267 51.0 96 31 665 0.22 14.67 0.0 0.0 0.0 9.47 0.00 100 1.0 12.14
5/7/19 76.0 1511 45.2 0506 0.00 41.42 3.4 18.3 1602 SW | 221 49.9 98 43 646 0.20 11.24 0.0 0.0 0.0 6.42 0.00 100 1.0 12.14
5/6/19 72.7 1524 44.2 0603 0.00 41.42 4.5 16.0 1604 SSW | 205 46.8 93 41 669 0.19 8.43 1.2 0.0 0.0 3.51 0.00 90 0.9 12.14
5/5/19 73.9 1229 42.1 0526 0.00 41.42 4.6 18.2 1647 WSW | 242 44.7 94 32 684 0.21 9.33 3.5 0.0 0.0 6.12 0.00 100 1.0 12.11
5/4/19 78.8 1416 41.0 0623 0.00 41.42 4.1 17.0 1524 SSW | 209 37.9 89 16 684 0.23 11.84 4.6 0.0 0.0 8.18 0.00 100 1.0 12.11
5/3/19 80.0 1356 41.7 0441 0.00 41.42 4.2 13.5 1327 SSW | 210 34.6 79 15 673 0.23 12.27 5.9 0.0 0.0 8.26 0.00 100 1.0 12.14
5/2/19 77.6 1650 36.4 0628 0.00 41.42 3.6 16.5 1819 SSW | 203 30.1 88 8 689 0.22 10.70 6.7 0.0 0.0 7.36 0.00 80 1.0 12.12
5/1/19 74.9 1632 39.4 0612 0.00 41.42 3.4 16.8 1719 WSW | 252 34.3 95 13 685 0.21 9.46 7.3 0.0 0.0 4.88 0.00 60 1.0 12.08
4/30/19 67.4 1641 42.8 0649 0.00 41.42 3.7 13.6 1550 ENE | 76 40.7 92 29 589 0.16 6.85 0.9 0.0 0.0 0.00 0.00 70 1.2 12.12
4/29/19 74.3 1204 46.9 0622 0.00 41.42 4.4 16.7 1504 SSW | 198 49.1 100 35 652 0.20 11.20 0.0 0.0 0.0 7.28 0.00 80 0.9 12.09
4/28/19 80.3 1651 44.3 0629 0.00 41.42 3.7 13.3 1743 WSW | 247 48.0 92 30 647 0.20 13.15 1.3 0.0 0.0 8.58 0.00 60 1.0 12.12
4/27/19 82.1 1353 45.2 0602 0.00 41.42 4.2 15.5 1636 SSW | 201 45.6 88 25 650 0.22 13.99 0.0 0.0 0.0 9.21 0.00 40 1.0 12.09
4/26/19 86.4 1457 45.6 0622 0.00 41.42 3.8 15.0 1459 W | 267 41.6 89 17 658 0.23 15.79 0.0 0.0 0.0 4.25 0.00 20 1.0 12.09
4/25/19 87.1 1651 47.9 0642 0.00 41.42 3.9 13.3 1540 W | 268 44.0 90 15 664 0.24 16.98 0.0 0.0 0.0 3.71 0.00 30 1.0 12.11
4/24/19 88.0 1609 52.6 0611 0.00 41.42 3.6 15.2 1646 WSW | 258 50.7 96 21 646 0.23 19.22 0.0 0.0 0.0 4.06 0.00 40 0.9 12.11
Max 88.0 - 52.6 - 1.37 - 5.7 24.2 - - 51.0 100 81 712 0.26 19.22 9.6 0.0 0.0 11.68 0.00 100 1.5 12.15
Avg - - - - - - 3.8 - - - 43.8 - - - - 9.94 1.9 0.0 0.0 4.89 0.00 - - -
Min 50.8 - 36.4 - 0.00 - 1.7 12.3 - - 30.1 79 8 115 0.03 0.03 0.0 0.0 0.0 0.00 0.00 10 0.6 11.96
Total - - - - - - - - - - - - - - - 298.29 58.1 0.0 0.0 146.66 0.00 - - -

Bell Hill West Climate Summary

Current Yeaer

Current Year | Showing 1/1/19 - 5/23/19
as of 5/24/19 10:20 PM PDT
Temperature (°F) Precip (in) Days
Month Days Avg Max Avg Min Max Max Min Min Total Daily Min Temp < 28 Daily Min Temp < 32 Daily Max Temp > 90 Daily Max Temp > 100 Daily Rain > 0.01 Daily Rain > 0.1
Jan 2019 31 56.8 36.2 71.5 24.5 10.09 3 8 0 0 12 11
Feb 2019 28 49.5 33.4 56.5 21.5 17.41 10 14 0 0 17 14
Mar 2019 31 58.8 36.4 74.6 26.8 4.4 1 6 0 0 12 10
Apr 2019 30 70.5 44 88.6 33.2 0.38 0 0 0 0 4 1
May 2019 23 70.8 44.1 84.1 36.4 2.3 0 0 0 0 5 4
Total 143 - - - - 34.58 14 28 0 0 50 40
Average 28.6 61.3 38.8 - - 6.92 2.8 5.6 0 0 10 8
Maximum 31 70.8 44.1 88.6 - 17.41 10 14 0 0 17 14
Minimum 23 49.5 33.4 - 21.5 0.38 0 0 0 0 4 1

Bell Hill West Climate Summary

Last Year

Last Year | Showing 1/1/18 - 12/31/18
as of 5/24/19 10:20 PM PDT
Temperature (°F) Precip (in) Days
Month Days Avg Max Avg Min Max Max Min Min Total Daily Min Temp < 28 Daily Min Temp < 32 Daily Max Temp > 90 Daily Max Temp > 100 Daily Rain > 0.01 Daily Rain > 0.1
Jan 2018 31 55.8 33.2 68.2 -40 6.62 3 10 0 0 15 9
Feb 2018 28 62 28.9 78.8 19.4 0.75 15 17 0 0 3 2
Mar 2018 31 59.9 34.1 82.6 23.8 6.24 5 11 0 0 16 13
Apr 2018 30 67.3 37.4 82.3 -40 3.01 1 2 0 0 7 7
May 2018 31 75.9 42.6 92.8 -40 0.12 1 1 1 0 2 0
Jun 2018 30 85.9 49.2 99.3 38.4 0 0 0 8 0 0 0
Jul 2018 31 93.9 56.5 103 47.8 0 0 0 24 4 0 0
Aug 2018 31 90.1 49.1 98 -40 0 1 1 16 0 0 0
Sep 2018 29 86.4 46.3 97.2 40.1 0.08 0 0 14 0 1 0
Oct 2018 31 77 42.1 86.4 32.4 1.04 0 0 0 0 4 2
Nov 2018 30 66 33.9 81.6 23.6 4.82 9 14 0 0 7 7
Dec 2018 31 54.8 33.2 62.3 25.4 3.2 2 15 0 0 11 5
Total 364 - - - - 25.88 37 71 63 4 66 45
Average 30.3 72.9 40.5 - - 2.16 3.1 5.9 5.2 0.3 5.5 3.8
Maximum 31 93.9 56.5 103 - 6.62 15 17 24 4 16 13
Minimum 28 54.8 28.9 - -40 0 0 0 0 0 0 0
Calm: 35.1%
Calm: 1.9%